OAL495 SLPO-SBCG
Flight info
| Callsign | OAL495 |
|---|---|
| Flight time | N/A |
| Altitude | 39000 |
| Route | ALC UW14 VIR UM411 ATERU UZ42 IRIPI |
| Aircraft | A20N/M-SDE2E3FGHIRWXY/LB1 |
Departure
| Time | 2026-05-08 19:13 |
|---|---|
| Airport | Capitan Nicolas Rojas Airport (SLPO) |
Arrival
| Time | N/A |
|---|---|
| Airport | Campo Grande Airport (SBCG) |
| Time | Latitude | Longitude | Altitude | Speed | Heading |
|---|---|---|---|---|---|
| 2026-05-08 18:50 | -19.54256 | -65.71981 | 12661 ft | 0 kts | 53° |
| 2026-05-08 18:58 | -19.54254 | -65.71981 | 12662 ft | 0 kts | 29° |
| 2026-05-08 18:58 | -19.54252 | -65.71982 | 12662 ft | 0 kts | 6° |
| 2026-05-08 18:59 | -19.54251 | -65.71984 | 12662 ft | 0 kts | 343° |
| 2026-05-08 18:59 | -19.54250 | -65.71986 | 12662 ft | 0 kts | 321° |
| 2026-05-08 18:59 | -19.54250 | -65.71988 | 12665 ft | 0 kts | 304° |
| 2026-05-08 18:59 | -19.54251 | -65.71989 | 12665 ft | 0 kts | 290° |
| 2026-05-08 19:00 | -19.54251 | -65.71990 | 12665 ft | 0 kts | 279° |
| 2026-05-08 19:00 | -19.54252 | -65.71990 | 12665 ft | 0 kts | 272° |
| 2026-05-08 19:00 | -19.54252 | -65.71991 | 12665 ft | 0 kts | 266° |
| 2026-05-08 19:00 | -19.54253 | -65.72003 | 12665 ft | 3 kts | 266° |
| 2026-05-08 19:01 | -19.54239 | -65.72038 | 12666 ft | 7 kts | 309° |
| 2026-05-08 19:01 | -19.54196 | -65.72073 | 12667 ft | 0 kts | 324° |
| 2026-05-08 19:08 | -19.54172 | -65.72084 | 12669 ft | 8 kts | 346° |
| 2026-05-08 19:08 | -19.54107 | -65.72031 | 12665 ft | 17 kts | 50° |
| 2026-05-08 19:08 | -19.54017 | -65.71895 | 12655 ft | 26 kts | 56° |
| 2026-05-08 19:09 | -19.53913 | -65.71732 | 12642 ft | 25 kts | 55° |
| 2026-05-08 19:09 | -19.53825 | -65.71602 | 12631 ft | 24 kts | 54° |
| 2026-05-08 19:09 | -19.53724 | -65.71453 | 12618 ft | 22 kts | 54° |
| 2026-05-08 19:09 | -19.53659 | -65.71324 | 12609 ft | 2 kts | 66° |
| 2026-05-08 19:10 | -19.53657 | -65.71324 | 12609 ft | 1 kts | 43° |
| 2026-05-08 19:10 | -19.53652 | -65.71331 | 12604 ft | 1 kts | 297° |
| 2026-05-08 19:10 | -19.53655 | -65.71335 | 12605 ft | 0 kts | 245° |
| 2026-05-08 19:12 | -19.53751 | -65.71498 | 12621 ft | 59 kts | 237° |
| 2026-05-08 19:13 | -19.54093 | -65.72036 | 12665 ft | 114 kts | 236° |
| 2026-05-08 19:13 | -19.54623 | -65.72865 | 12729 ft | 155 kts | 237° |
| 2026-05-08 19:13 | -19.55273 | -65.73892 | 12985 ft | 179 kts | 236° |
| 2026-05-08 19:13 | -19.56014 | -65.75007 | 13588 ft | 189 kts | 237° |
| 2026-05-08 19:14 | -19.56719 | -65.76121 | 14085 ft | 176 kts | 237° |
| 2026-05-08 19:14 | -19.57399 | -65.77192 | 14777 ft | 176 kts | 238° |
| 2026-05-08 19:14 | -19.58112 | -65.78323 | 15146 ft | 194 kts | 237° |
| 2026-05-08 19:14 | -19.58905 | -65.79577 | 15315 ft | 215 kts | 237° |
| 2026-05-08 19:15 | -19.59776 | -65.80954 | 15435 ft | 234 kts | 237° |
| 2026-05-08 19:15 | -19.60704 | -65.82428 | 15627 ft | 246 kts | 239° |
| 2026-05-08 19:15 | -19.61282 | -65.84187 | 15753 ft | 265 kts | 265° |
| 2026-05-08 19:15 | -19.60987 | -65.86181 | 15946 ft | 286 kts | 292° |
| 2026-05-08 19:16 | -19.59831 | -65.87936 | 16214 ft | 308 kts | 315° |
| 2026-05-08 19:16 | -19.57922 | -65.89166 | 16396 ft | 337 kts | 338° |
| 2026-05-08 19:16 | -19.56389 | -65.89598 | 16508 ft | 352 kts | 347° |
| 2026-05-08 19:16 | -19.52992 | -65.89449 | 16755 ft | 383 kts | 14° |
| 2026-05-08 19:17 | -19.50544 | -65.88205 | 17208 ft | 397 kts | 34° |
| 2026-05-08 19:17 | -19.48582 | -65.86191 | 17957 ft | 400 kts | 52° |
| 2026-05-08 19:17 | -19.47214 | -65.83612 | 18514 ft | 405 kts | 69° |
| 2026-05-08 19:17 | -19.46467 | -65.80712 | 19091 ft | 408 kts | 78° |
| 2026-05-08 19:18 | -19.45882 | -65.77752 | 19613 ft | 412 kts | 78° |
| 2026-05-08 19:18 | -19.45216 | -65.74779 | 20125 ft | 416 kts | 76° |
| 2026-05-08 19:18 | -19.44437 | -65.71806 | 20641 ft | 421 kts | 74° |
| 2026-05-08 19:18 | -19.43575 | -65.68825 | 21185 ft | 424 kts | 73° |
| 2026-05-08 19:19 | -19.42675 | -65.65845 | 21790 ft | 427 kts | 72° |
| 2026-05-08 19:19 | -19.42063 | -65.63851 | 22151 ft | 429 kts | 72° |
| 2026-05-08 19:19 | -19.40823 | -65.59828 | 22860 ft | 435 kts | 72° |
| 2026-05-08 19:19 | -19.40189 | -65.57772 | 23239 ft | 437 kts | 72° |
| 2026-05-08 19:20 | -19.38933 | -65.53695 | 23909 ft | 441 kts | 72° |
| 2026-05-08 19:20 | -19.38611 | -65.52647 | 24068 ft | 442 kts | 72° |
| 2026-05-08 19:20 | -19.37342 | -65.48521 | 24668 ft | 447 kts | 72° |
| 2026-05-08 19:20 | -19.36376 | -65.45380 | 25139 ft | 450 kts | 71° |
| 2026-05-08 19:21 | -19.35081 | -65.41170 | 25809 ft | 455 kts | 71° |
| 2026-05-08 19:21 | -19.34094 | -65.37965 | 26244 ft | 460 kts | 71° |
| 2026-05-08 19:21 | -19.33097 | -65.34730 | 26695 ft | 464 kts | 71° |
| 2026-05-08 19:21 | -19.32092 | -65.31469 | 27101 ft | 467 kts | 71° |
| 2026-05-08 19:22 | -19.31409 | -65.29257 | 27393 ft | 470 kts | 71° |
| 2026-05-08 19:22 | -19.30403 | -65.25998 | 27812 ft | 473 kts | 71° |
| 2026-05-08 19:22 | -19.29375 | -65.22671 | 28209 ft | 477 kts | 70° |
| 2026-05-08 19:22 | -19.28340 | -65.19322 | 28574 ft | 481 kts | 70° |
| 2026-05-08 19:23 | -19.27088 | -65.16025 | 28960 ft | 481 kts | 62° |
| 2026-05-08 19:23 | -19.25428 | -65.12946 | 29290 ft | 483 kts | 53° |
| 2026-05-08 19:23 | -19.23385 | -65.10135 | 29633 ft | 482 kts | 45° |
| 2026-05-08 19:23 | -19.21162 | -65.07453 | 29954 ft | 486 kts | 45° |
| 2026-05-08 19:24 | -19.18925 | -65.04740 | 30341 ft | 488 kts | 45° |
| 2026-05-08 19:24 | -19.16692 | -65.02023 | 30624 ft | 491 kts | 45° |
| 2026-05-08 19:24 | -19.14443 | -64.99283 | 30945 ft | 493 kts | 45° |
| 2026-05-08 19:24 | -19.12192 | -64.96537 | 31275 ft | 495 kts | 45° |
| 2026-05-08 19:25 | -19.09966 | -64.93823 | 31665 ft | 494 kts | 45° |
| 2026-05-08 19:25 | -19.07717 | -64.91081 | 32105 ft | 493 kts | 45° |
| 2026-05-08 19:25 | -19.05472 | -64.88346 | 32520 ft | 491 kts | 45° |
| 2026-05-08 19:25 | -19.03234 | -64.85622 | 32939 ft | 490 kts | 45° |
| 2026-05-08 19:26 | -19.00998 | -64.82902 | 33375 ft | 488 kts | 45° |
| 2026-05-08 19:26 | -18.98778 | -64.80203 | 33852 ft | 486 kts | 44° |
| 2026-05-08 19:26 | -18.96560 | -64.77508 | 34196 ft | 486 kts | 44° |
| 2026-05-08 19:26 | -18.94336 | -64.74807 | 34545 ft | 485 kts | 44° |
| 2026-05-08 19:27 | -18.92125 | -64.72123 | 34892 ft | 483 kts | 44° |
| 2026-05-08 19:27 | -18.89923 | -64.69452 | 35280 ft | 481 kts | 44° |
| 2026-05-08 19:27 | -18.87728 | -64.66788 | 35645 ft | 480 kts | 44° |
| 2026-05-08 19:27 | -18.85536 | -64.64130 | 35989 ft | 478 kts | 44° |
| 2026-05-08 19:28 | -18.83353 | -64.61485 | 36301 ft | 477 kts | 44° |
| 2026-05-08 19:28 | -18.81200 | -64.58878 | 36620 ft | 476 kts | 43° |
| 2026-05-08 19:28 | -18.79019 | -64.56237 | 36898 ft | 476 kts | 43° |
| 2026-05-08 19:28 | -18.76847 | -64.53601 | 37232 ft | 474 kts | 44° |
| 2026-05-08 19:29 | -18.74697 | -64.50964 | 37599 ft | 472 kts | 44° |
| 2026-05-08 19:29 | -18.72555 | -64.48327 | 37794 ft | 474 kts | 43° |
| 2026-05-08 19:29 | -18.70416 | -64.45694 | 38059 ft | 473 kts | 43° |
| 2026-05-08 19:29 | -18.68272 | -64.43058 | 38332 ft | 472 kts | 43° |
| 2026-05-08 19:30 | -18.66133 | -64.40432 | 38594 ft | 471 kts | 43° |
| 2026-05-08 19:30 | -18.63997 | -64.37813 | 38821 ft | 470 kts | 43° |
| 2026-05-08 19:30 | -18.61899 | -64.35240 | 38909 ft | 469 kts | 43° |
| 2026-05-08 19:31 | -18.57648 | -64.30038 | 38917 ft | 471 kts | 43° |
| 2026-05-08 19:31 | -18.53331 | -64.24757 | 38927 ft | 471 kts | 43° |
| 2026-05-08 19:32 | -18.49073 | -64.19552 | 38935 ft | 472 kts | 42° |
| 2026-05-08 19:32 | -18.44773 | -64.14300 | 38942 ft | 472 kts | 42° |
| 2026-05-08 19:33 | -18.40488 | -64.09070 | 38944 ft | 471 kts | 42° |
| 2026-05-08 19:33 | -18.36216 | -64.03860 | 38962 ft | 470 kts | 42° |
| 2026-05-08 19:34 | -18.31918 | -63.98628 | 38969 ft | 473 kts | 42° |
| 2026-05-08 19:34 | -18.27651 | -63.93433 | 38980 ft | 472 kts | 42° |
| 2026-05-08 19:35 | -18.24035 | -63.89037 | 38982 ft | 473 kts | 42° |
| 2026-05-08 19:35 | -18.19034 | -63.82958 | 38988 ft | 473 kts | 41° |
| 2026-05-08 19:36 | -18.14719 | -63.77718 | 38991 ft | 473 kts | 41° |
| 2026-05-08 19:36 | -18.14023 | -63.76873 | 38990 ft | 473 kts | 41° |
| 2026-05-08 19:37 | -18.06137 | -63.67310 | 38984 ft | 471 kts | 41° |
| 2026-05-08 19:37 | -18.01844 | -63.62109 | 38969 ft | 471 kts | 41° |
| 2026-05-08 19:38 | -17.98970 | -63.58631 | 38973 ft | 470 kts | 41° |
| 2026-05-08 19:39 | -17.88781 | -63.46314 | 38969 ft | 468 kts | 41° |
| 2026-05-08 19:39 | -17.84512 | -63.41160 | 38967 ft | 467 kts | 41° |
| 2026-05-08 19:40 | -17.80267 | -63.36040 | 38963 ft | 466 kts | 41° |
| 2026-05-08 19:40 | -17.76009 | -63.30907 | 38965 ft | 466 kts | 41° |
| 2026-05-08 19:41 | -17.71745 | -63.25773 | 38971 ft | 465 kts | 41° |
| 2026-05-08 19:41 | -17.67667 | -63.20465 | 38944 ft | 474 kts | 52° |
| 2026-05-08 19:41 | -17.66164 | -63.17356 | 38942 ft | 482 kts | 63° |
| 2026-05-08 19:42 | -17.65185 | -63.13957 | 38938 ft | 490 kts | 74° |
| 2026-05-08 19:42 | -17.64785 | -63.10450 | 38936 ft | 496 kts | 85° |
| 2026-05-08 19:42 | -17.64976 | -63.06821 | 38934 ft | 500 kts | 96° |
| 2026-05-08 19:43 | -17.66754 | -62.99735 | 38929 ft | 502 kts | 104° |
| 2026-05-08 19:43 | -17.68702 | -62.92696 | 38941 ft | 503 kts | 104° |
| 2026-05-08 19:44 | -17.70638 | -62.85644 | 38952 ft | 502 kts | 104° |
| 2026-05-08 19:44 | -17.72567 | -62.78606 | 38958 ft | 502 kts | 104° |
| 2026-05-08 19:45 | -17.74483 | -62.71609 | 38961 ft | 502 kts | 104° |
| 2026-05-08 19:45 | -17.76411 | -62.64557 | 38965 ft | 502 kts | 104° |
| 2026-05-08 19:46 | -17.78332 | -62.57518 | 38968 ft | 502 kts | 104° |
| 2026-05-08 19:46 | -17.81213 | -62.46943 | 38973 ft | 501 kts | 104° |
| 2026-05-08 19:47 | -17.83116 | -62.39949 | 38978 ft | 501 kts | 104° |
| 2026-05-08 19:47 | -17.85028 | -62.32903 | 38979 ft | 501 kts | 104° |
| 2026-05-08 19:48 | -17.86940 | -62.25851 | 38982 ft | 501 kts | 104° |
| 2026-05-08 19:48 | -17.88843 | -62.18823 | 38979 ft | 501 kts | 104° |
| 2026-05-08 19:49 | -17.90737 | -62.11814 | 38986 ft | 502 kts | 104° |
| 2026-05-08 19:49 | -17.92640 | -62.04761 | 38984 ft | 502 kts | 104° |
| 2026-05-08 19:50 | -17.94540 | -61.97708 | 38987 ft | 501 kts | 104° |
| 2026-05-08 19:50 | -17.96438 | -61.90651 | 38985 ft | 501 kts | 103° |
| 2026-05-08 19:51 | -17.98331 | -61.83603 | 38985 ft | 501 kts | 104° |
| 2026-05-08 19:51 | -18.00217 | -61.76604 | 38986 ft | 501 kts | 104° |
| 2026-05-08 19:52 | -18.02142 | -61.69576 | 38988 ft | 500 kts | 104° |
| 2026-05-08 19:52 | -18.04061 | -61.62551 | 38989 ft | 499 kts | 104° |
| 2026-05-08 19:53 | -18.05972 | -61.55535 | 38987 ft | 499 kts | 104° |
| 2026-05-08 19:53 | -18.07874 | -61.48538 | 38990 ft | 499 kts | 104° |
| 2026-05-08 19:54 | -18.09770 | -61.41559 | 38983 ft | 498 kts | 104° |
| 2026-05-08 19:54 | -18.11408 | -61.35703 | 38984 ft | 499 kts | 105° |
| 2026-05-08 19:55 | -18.13379 | -61.28706 | 38980 ft | 499 kts | 105° |
| 2026-05-08 19:55 | -18.15330 | -61.21745 | 38983 ft | 499 kts | 104° |
| 2026-05-08 19:56 | -18.17292 | -61.14722 | 38973 ft | 499 kts | 104° |
| 2026-05-08 19:56 | -18.19245 | -61.07716 | 38968 ft | 499 kts | 104° |
| 2026-05-08 19:57 | -18.21182 | -61.00755 | 38965 ft | 499 kts | 104° |
| 2026-05-08 19:57 | -18.23131 | -60.93743 | 38964 ft | 499 kts | 104° |
| 2026-05-08 19:58 | -18.25078 | -60.86726 | 38967 ft | 499 kts | 104° |
| 2026-05-08 19:58 | -18.27024 | -60.79702 | 38967 ft | 500 kts | 104° |
| 2026-05-08 19:59 | -18.28967 | -60.72678 | 38966 ft | 500 kts | 105° |
| 2026-05-08 19:59 | -18.30913 | -60.65631 | 38960 ft | 500 kts | 105° |
| 2026-05-08 20:00 | -18.32851 | -60.58603 | 38966 ft | 500 kts | 105° |
| 2026-05-08 20:00 | -18.34779 | -60.51600 | 38967 ft | 501 kts | 105° |
| 2026-05-08 20:01 | -18.36714 | -60.44560 | 38970 ft | 500 kts | 105° |
| 2026-05-08 20:01 | -18.38648 | -60.37517 | 38965 ft | 500 kts | 105° |
| 2026-05-08 20:02 | -18.40575 | -60.30485 | 38965 ft | 499 kts | 104° |
| 2026-05-08 20:02 | -18.42484 | -60.23507 | 38954 ft | 498 kts | 104° |
| 2026-05-08 20:03 | -18.44396 | -60.16510 | 38957 ft | 497 kts | 104° |
| 2026-05-08 20:03 | -18.46304 | -60.09514 | 38961 ft | 497 kts | 104° |
| 2026-05-08 20:04 | -18.48208 | -60.02522 | 38976 ft | 496 kts | 104° |
| 2026-05-08 20:04 | -18.50109 | -59.95530 | 38987 ft | 496 kts | 104° |
| 2026-05-08 20:05 | -18.52014 | -59.88513 | 39000 ft | 497 kts | 104° |
| 2026-05-08 20:05 | -18.53905 | -59.81538 | 39008 ft | 499 kts | 104° |
| 2026-05-08 20:06 | -18.55806 | -59.74510 | 38993 ft | 497 kts | 104° |
| 2026-05-08 20:06 | -18.57700 | -59.67504 | 38985 ft | 497 kts | 104° |
| 2026-05-08 20:07 | -18.59591 | -59.60495 | 38964 ft | 497 kts | 104° |
| 2026-05-08 20:07 | -18.61476 | -59.53497 | 38946 ft | 496 kts | 104° |
| 2026-05-08 20:08 | -18.63361 | -59.46485 | 38948 ft | 496 kts | 104° |
| 2026-05-08 20:08 | -18.65244 | -59.39473 | 38946 ft | 495 kts | 104° |
| 2026-05-08 20:09 | -18.67108 | -59.32521 | 38948 ft | 494 kts | 104° |
| 2026-05-08 20:09 | -18.68976 | -59.25538 | 38935 ft | 493 kts | 104° |
| 2026-05-08 20:10 | -18.70836 | -59.18576 | 38934 ft | 493 kts | 104° |
| 2026-05-08 20:10 | -18.72694 | -59.11611 | 38928 ft | 493 kts | 104° |
| 2026-05-08 20:11 | -18.74539 | -59.04686 | 38925 ft | 493 kts | 104° |
| 2026-05-08 20:11 | -18.76393 | -58.97714 | 38925 ft | 494 kts | 104° |
| 2026-05-08 20:12 | -18.78252 | -58.90710 | 38924 ft | 494 kts | 104° |
| 2026-05-08 20:12 | -18.80095 | -58.83759 | 38928 ft | 495 kts | 104° |
| 2026-05-08 20:13 | -18.81946 | -58.76762 | 38932 ft | 496 kts | 104° |
| 2026-05-08 20:13 | -18.83805 | -58.69729 | 38934 ft | 496 kts | 105° |
| 2026-05-08 20:14 | -18.85650 | -58.62742 | 38935 ft | 497 kts | 105° |
| 2026-05-08 20:14 | -18.87556 | -58.55706 | 38938 ft | 498 kts | 105° |
| 2026-05-08 20:15 | -18.89478 | -58.48670 | 38945 ft | 499 kts | 105° |
| 2026-05-08 20:15 | -18.91397 | -58.41608 | 38940 ft | 500 kts | 105° |
| 2026-05-08 20:16 | -18.93310 | -58.34551 | 38944 ft | 500 kts | 105° |
| 2026-05-08 20:16 | -18.95231 | -58.27451 | 38949 ft | 501 kts | 105° |
| 2026-05-08 20:17 | -18.97152 | -58.20431 | 38935 ft | 499 kts | 105° |
| 2026-05-08 20:17 | -18.99079 | -58.13391 | 38921 ft | 499 kts | 105° |
| 2026-05-08 20:18 | -19.01002 | -58.06347 | 38909 ft | 498 kts | 105° |
| 2026-05-08 20:18 | -19.02910 | -57.99339 | 38898 ft | 499 kts | 105° |
| 2026-05-08 20:19 | -19.04829 | -57.92281 | 38885 ft | 498 kts | 105° |
| 2026-05-08 20:19 | -19.06744 | -57.85229 | 38877 ft | 498 kts | 106° |
| 2026-05-08 20:20 | -19.08777 | -57.78232 | 38875 ft | 497 kts | 110° |
| 2026-05-08 20:20 | -19.11076 | -57.71380 | 38894 ft | 497 kts | 109° |
| 2026-05-08 20:21 | -19.13380 | -57.64473 | 38903 ft | 498 kts | 109° |
| 2026-05-08 20:21 | -19.15686 | -57.57543 | 38906 ft | 499 kts | 109° |
| 2026-05-08 20:22 | -19.17987 | -57.50621 | 38912 ft | 499 kts | 109° |
| 2026-05-08 20:22 | -19.19899 | -57.44863 | 38911 ft | 499 kts | 109° |
| 2026-05-08 20:23 | -19.22584 | -57.36762 | 38915 ft | 500 kts | 109° |
| 2026-05-08 20:23 | -19.24886 | -57.29809 | 38921 ft | 501 kts | 109° |
| 2026-05-08 20:24 | -19.27183 | -57.22861 | 38919 ft | 500 kts | 109° |
| 2026-05-08 20:24 | -19.29477 | -57.15912 | 38914 ft | 500 kts | 109° |
| 2026-05-08 20:25 | -19.31769 | -57.08957 | 38910 ft | 500 kts | 109° |
| 2026-05-08 20:25 | -19.34054 | -57.02016 | 38912 ft | 500 kts | 109° |
| 2026-05-08 20:26 | -19.36800 | -56.95258 | 38916 ft | 500 kts | 119° |
| 2026-05-08 20:26 | -19.40026 | -56.88737 | 38908 ft | 499 kts | 118° |
| 2026-05-08 20:27 | -19.43224 | -56.82218 | 38903 ft | 499 kts | 118° |
| 2026-05-08 20:27 | -19.46417 | -56.75707 | 38900 ft | 498 kts | 118° |
| 2026-05-08 20:28 | -19.49590 | -56.69229 | 38902 ft | 498 kts | 118° |
| 2026-05-08 20:28 | -19.52800 | -56.62670 | 38893 ft | 498 kts | 118° |
| 2026-05-08 20:29 | -19.55963 | -56.56201 | 38886 ft | 497 kts | 118° |
| 2026-05-08 20:29 | -19.59146 | -56.49681 | 38881 ft | 498 kts | 118° |
| 2026-05-08 20:30 | -19.62326 | -56.43161 | 38873 ft | 498 kts | 118° |
| 2026-05-08 20:30 | -19.65501 | -56.36642 | 38869 ft | 497 kts | 118° |
| 2026-05-08 20:31 | -19.68675 | -56.30120 | 38865 ft | 497 kts | 118° |
| 2026-05-08 20:31 | -19.71836 | -56.23616 | 38160 ft | 493 kts | 118° |
| 2026-05-08 20:32 | -19.73407 | -56.20381 | 37198 ft | 494 kts | 118° |
| 2026-05-08 20:32 | -19.74991 | -56.17118 | 36108 ft | 498 kts | 119° |
| 2026-05-08 20:32 | -19.76578 | -56.13845 | 34979 ft | 502 kts | 119° |
| 2026-05-08 20:32 | -19.78184 | -56.10532 | 33876 ft | 506 kts | 119° |
| 2026-05-08 20:33 | -19.79798 | -56.07202 | 32669 ft | 509 kts | 119° |
| 2026-05-08 20:33 | -19.81418 | -56.03855 | 31548 ft | 509 kts | 119° |
| 2026-05-08 20:33 | -19.83040 | -56.00506 | 30442 ft | 510 kts | 119° |
| 2026-05-08 20:33 | -19.84660 | -55.97156 | 29385 ft | 507 kts | 119° |
| 2026-05-08 20:34 | -19.86255 | -55.93855 | 28494 ft | 499 kts | 119° |
| 2026-05-08 20:34 | -19.87832 | -55.90591 | 27573 ft | 494 kts | 119° |
| 2026-05-08 20:34 | -19.90934 | -55.84165 | 26505 ft | 481 kts | 118° |
| 2026-05-08 20:35 | -19.92449 | -55.81024 | 25855 ft | 478 kts | 118° |
| 2026-05-08 20:35 | -19.93961 | -55.77888 | 25305 ft | 473 kts | 118° |
| 2026-05-08 20:35 | -19.95456 | -55.74788 | 24711 ft | 470 kts | 118° |
| 2026-05-08 20:35 | -19.96447 | -55.72733 | 24284 ft | 469 kts | 117° |
| 2026-05-08 20:36 | -19.98425 | -55.68627 | 23521 ft | 465 kts | 117° |
| 2026-05-08 20:36 | -19.99893 | -55.65577 | 22854 ft | 461 kts | 117° |
| 2026-05-08 20:36 | -20.01343 | -55.62561 | 22303 ft | 455 kts | 117° |
| 2026-05-08 20:36 | -20.02775 | -55.59583 | 21717 ft | 450 kts | 117° |
| 2026-05-08 20:37 | -20.03719 | -55.57622 | 21330 ft | 447 kts | 117° |
| 2026-05-08 20:37 | -20.05128 | -55.54693 | 20756 ft | 443 kts | 117° |
| 2026-05-08 20:37 | -20.06531 | -55.51778 | 20167 ft | 440 kts | 117° |
| 2026-05-08 20:37 | -20.07468 | -55.49829 | 19781 ft | 437 kts | 117° |
| 2026-05-08 20:38 | -20.08849 | -55.46956 | 19221 ft | 434 kts | 117° |
| 2026-05-08 20:38 | -20.11113 | -55.42243 | 18247 ft | 430 kts | 117° |
| 2026-05-08 20:38 | -20.12014 | -55.40366 | 17879 ft | 427 kts | 117° |
| 2026-05-08 20:38 | -20.13356 | -55.37570 | 17302 ft | 422 kts | 117° |
| 2026-05-08 20:39 | -20.14886 | -55.34944 | 16756 ft | 415 kts | 131° |
| 2026-05-08 20:39 | -20.16992 | -55.32900 | 16215 ft | 407 kts | 149° |
| 2026-05-08 20:39 | -20.19514 | -55.31630 | 15700 ft | 396 kts | 168° |
| 2026-05-08 20:39 | -20.22183 | -55.31256 | 15230 ft | 382 kts | 187° |
| 2026-05-08 20:40 | -20.24726 | -55.31791 | 14783 ft | 366 kts | 206° |
| 2026-05-08 20:40 | -20.27004 | -55.32916 | 14280 ft | 360 kts | 212° |
| 2026-05-08 20:40 | -20.29235 | -55.34086 | 13845 ft | 357 kts | 210° |
| 2026-05-08 20:40 | -20.31522 | -55.35135 | 13331 ft | 356 kts | 207° |
| 2026-05-08 20:41 | -20.33847 | -55.36020 | 12881 ft | 355 kts | 199° |
| 2026-05-08 20:41 | -20.36316 | -55.36225 | 12416 ft | 361 kts | 178° |
| 2026-05-08 20:41 | -20.38736 | -55.35489 | 11943 ft | 366 kts | 156° |
| 2026-05-08 20:41 | -20.40782 | -55.33890 | 11481 ft | 366 kts | 133° |
| 2026-05-08 20:42 | -20.42244 | -55.31697 | 11024 ft | 363 kts | 118° |
| 2026-05-08 20:42 | -20.43416 | -55.29322 | 10542 ft | 361 kts | 115° |
| 2026-05-08 20:42 | -20.44569 | -55.26966 | 10241 ft | 354 kts | 117° |
| 2026-05-08 20:42 | -20.45751 | -55.24715 | 10111 ft | 341 kts | 118° |
| 2026-05-08 20:43 | -20.46947 | -55.22567 | 9823 ft | 335 kts | 120° |
| 2026-05-08 20:43 | -20.48155 | -55.20477 | 9645 ft | 327 kts | 121° |
| 2026-05-08 20:43 | -20.49370 | -55.18408 | 9460 ft | 333 kts | 121° |
| 2026-05-08 20:43 | -20.50613 | -55.16306 | 9098 ft | 336 kts | 121° |
| 2026-05-08 20:44 | -20.51851 | -55.14216 | 8905 ft | 328 kts | 120° |
| 2026-05-08 20:44 | -20.53057 | -55.12178 | 8778 ft | 325 kts | 120° |
| 2026-05-08 20:44 | -20.54266 | -55.10130 | 8655 ft | 327 kts | 120° |
| 2026-05-08 20:44 | -20.55473 | -55.08083 | 8491 ft | 326 kts | 120° |
| 2026-05-08 20:45 | -20.56684 | -55.06027 | 8088 ft | 328 kts | 120° |
| 2026-05-08 20:45 | -20.57900 | -55.03963 | 7667 ft | 328 kts | 120° |
| 2026-05-08 20:45 | -20.59117 | -55.01900 | 7247 ft | 328 kts | 119° |
| 2026-05-08 20:45 | -20.60332 | -54.99840 | 6836 ft | 329 kts | 119° |
| 2026-05-08 20:46 | -20.61140 | -54.98468 | 6606 ft | 327 kts | 119° |
| 2026-05-08 20:46 | -20.62351 | -54.96411 | 6300 ft | 322 kts | 119° |
| 2026-05-08 20:46 | -20.62740 | -54.95751 | 6186 ft | 321 kts | 118° |
| 2026-05-08 20:46 | -20.64718 | -54.92386 | 5539 ft | 318 kts | 118° |